createdAt,value
2019-05-21T00:00:11.776Z,99.90
2019-05-21T00:02:40.277Z,99.90
2019-05-21T00:05:09.215Z,99.90
2019-05-21T00:07:37.677Z,99.90
2019-05-21T00:10:07.426Z,99.90
2019-05-21T00:12:35.955Z,99.90
2019-05-21T00:15:04.956Z,99.90
2019-05-21T00:17:33.415Z,99.90
2019-05-21T00:20:02.006Z,99.90
2019-05-21T00:22:30.661Z,99.90
2019-05-21T00:24:59.393Z,99.90
2019-05-21T00:27:28.258Z,99.90
2019-05-21T00:30:33.275Z,99.90
2019-05-21T00:33:37.936Z,99.90
2019-05-21T00:36:44.318Z,99.90
2019-05-21T00:39:49.230Z,99.90
2019-05-21T00:42:30.134Z,99.90
2019-05-21T00:44:58.601Z,99.90
2019-05-21T00:47:27.093Z,99.90
2019-05-21T00:49:56.223Z,99.90
2019-05-21T00:52:24.687Z,99.90
2019-05-21T00:54:53.643Z,99.90
2019-05-21T00:57:22.171Z,99.90
2019-05-21T00:59:50.630Z,99.90
2019-05-21T01:02:19.535Z,99.90
2019-05-21T01:05:00.423Z,99.90
2019-05-21T01:07:18.261Z,99.90
2019-05-21T01:09:46.822Z,99.90
2019-05-21T01:12:15.363Z,99.90
2019-05-21T01:14:43.843Z,99.90
2019-05-21T01:17:12.391Z,99.90
2019-05-21T01:19:40.895Z,99.90
2019-05-21T01:22:09.355Z,99.90
2019-05-21T01:24:37.818Z,99.90
2019-05-21T01:27:06.323Z,99.90
2019-05-21T01:29:34.798Z,99.90
2019-05-21T01:32:03.416Z,99.90
2019-05-21T01:34:32.795Z,99.90
2019-05-21T01:37:01.799Z,99.90
2019-05-21T01:39:30.263Z,99.90
2019-05-21T01:41:58.774Z,99.90
2019-05-21T01:44:27.342Z,99.90
2019-05-21T01:46:55.800Z,99.90
2019-05-21T01:49:24.362Z,99.90
2019-05-21T01:51:52.836Z,99.90
2019-05-21T01:54:21.334Z,99.90
2019-05-21T01:56:49.834Z,99.90
2019-05-21T01:59:18.359Z,99.90
2019-05-21T02:01:46.859Z,99.90
2019-05-21T02:04:15.327Z,99.90
2019-05-21T02:06:44.265Z,99.90
2019-05-21T02:09:12.713Z,99.90
2019-05-21T02:11:41.235Z,99.90
2019-05-21T02:14:09.703Z,99.90
2019-05-21T02:16:38.154Z,99.90
2019-05-21T02:19:06.673Z,99.90
2019-05-21T02:21:35.229Z,99.90
2019-05-21T02:24:03.828Z,99.90
2019-05-21T02:26:32.335Z,99.90
2019-05-21T02:29:00.796Z,99.90
2019-05-21T02:31:29.502Z,99.90
2019-05-21T02:33:57.971Z,99.90
2019-05-21T02:36:26.505Z,99.90
2019-05-21T02:38:55.117Z,99.90
2019-05-21T02:41:23.647Z,99.90
2019-05-21T02:43:52.184Z,99.90
2019-05-21T02:46:20.922Z,99.90
2019-05-21T02:48:49.388Z,99.90
2019-05-21T02:51:17.849Z,99.90
2019-05-21T02:53:46.419Z,99.90
2019-05-21T02:56:14.876Z,99.90
2019-05-21T02:58:43.467Z,99.90
2019-05-21T03:01:17.272Z,99.90
2019-05-21T03:03:43.782Z,99.90
2019-05-21T03:06:14.714Z,99.90
2019-05-21T03:08:42.552Z,99.90
2019-05-21T03:11:11.023Z,99.90
2019-05-21T03:13:39.594Z,99.90
2019-05-21T03:16:08.124Z,99.90
2019-05-21T03:18:36.618Z,99.90
2019-05-21T03:21:05.075Z,99.90
2019-05-21T03:23:33.526Z,99.90
2019-05-21T03:26:02.223Z,99.90
2019-05-21T03:28:30.756Z,99.90
2019-05-21T03:30:59.222Z,99.90
2019-05-21T03:33:27.993Z,99.90
2019-05-21T03:35:56.535Z,99.90
2019-05-21T03:38:25.068Z,99.90
2019-05-21T03:40:53.628Z,99.90
2019-05-21T03:43:22.230Z,99.90
2019-05-21T03:45:50.729Z,99.90
2019-05-21T03:48:19.183Z,99.90
2019-05-21T03:50:47.719Z,99.90
2019-05-21T03:53:16.385Z,99.90
2019-05-21T03:55:45.075Z,99.90
2019-05-21T03:58:13.604Z,99.90
2019-05-21T04:00:42.151Z,99.90
2019-05-21T04:03:10.675Z,99.90
2019-05-21T04:05:39.193Z,99.90
2019-05-21T04:08:07.655Z,99.90
2019-05-21T04:10:36.186Z,99.90
2019-05-21T04:13:08.024Z,99.90
2019-05-21T04:15:56.632Z,99.90
2019-05-21T04:18:26.807Z,99.90
2019-05-21T04:20:55.325Z,99.90
2019-05-21T04:23:23.790Z,99.90
2019-05-21T04:25:52.365Z,99.90
2019-05-21T04:28:20.970Z,99.90
2019-05-21T04:30:49.752Z,99.90
2019-05-21T04:33:18.219Z,99.90
2019-05-21T04:35:46.680Z,99.90
2019-05-21T04:38:15.180Z,99.90
2019-05-21T04:40:43.714Z,99.90
2019-05-21T04:43:12.312Z,99.90
2019-05-21T04:45:40.846Z,99.90
2019-05-21T04:48:09.301Z,99.90
2019-05-21T04:50:37.944Z,99.90
2019-05-21T04:53:06.410Z,99.90
2019-05-21T04:55:34.939Z,99.90
2019-05-21T04:58:03.450Z,99.90
2019-05-21T05:00:31.910Z,99.90
2019-05-21T05:03:00.452Z,99.90
2019-05-21T05:05:29.290Z,99.90
2019-05-21T05:07:57.808Z,99.90
2019-05-21T05:10:26.344Z,99.90
2019-05-21T05:12:54.836Z,99.90
2019-05-21T05:15:23.295Z,99.90
2019-05-21T05:17:51.825Z,99.90
2019-05-21T05:20:20.290Z,99.90
2019-05-21T05:22:48.824Z,99.90
2019-05-21T05:25:17.503Z,99.90
2019-05-21T05:27:46.090Z,99.90
2019-05-21T05:30:15.197Z,99.90
2019-05-21T05:32:43.837Z,99.90
2019-05-21T05:35:12.604Z,99.90
2019-05-21T05:37:45.216Z,99.90
2019-05-21T05:40:12.221Z,99.90
2019-05-21T05:42:40.739Z,99.90
2019-05-21T05:45:09.951Z,99.90
2019-05-21T05:47:38.516Z,99.90
2019-05-21T05:50:09.506Z,99.90
2019-05-21T05:52:38.094Z,99.90
2019-05-21T05:55:07.570Z,99.90
2019-05-21T05:57:36.332Z,99.90
2019-05-21T06:00:06.904Z,99.90
2019-05-21T06:02:35.363Z,99.90
2019-05-21T06:05:06.362Z,99.90
2019-05-21T06:07:34.855Z,99.90
2019-05-21T06:10:04.021Z,99.90
2019-05-21T06:12:32.626Z,99.90
2019-05-21T06:15:01.255Z,99.90
2019-05-21T06:17:29.936Z,99.90
2019-05-21T06:19:58.473Z,99.90
2019-05-21T06:22:26.996Z,99.90
2019-05-21T06:24:55.454Z,99.90
2019-05-21T06:27:23.942Z,99.90
2019-05-21T06:29:52.459Z,99.90
2019-05-21T06:32:20.988Z,99.90
2019-05-21T06:34:49.446Z,99.90
2019-05-21T06:37:18.015Z,99.90
2019-05-21T06:39:46.608Z,99.90
2019-05-21T06:42:15.134Z,99.90
2019-05-21T06:44:43.798Z,99.90
2019-05-21T06:47:12.263Z,99.90
2019-05-21T06:49:40.848Z,99.90
2019-05-21T06:52:09.376Z,99.90
2019-05-21T06:54:37.902Z,99.90
2019-05-21T06:57:06.428Z,99.90
2019-05-21T06:59:34.896Z,99.90
2019-05-21T07:02:03.453Z,99.90
2019-05-21T07:04:32.031Z,99.90
2019-05-21T07:07:00.618Z,99.90
2019-05-21T07:09:29.134Z,99.90
2019-05-21T07:11:57.627Z,99.90
2019-05-21T07:14:26.082Z,99.90
2019-05-21T07:16:54.613Z,99.90
2019-05-21T07:19:23.144Z,99.90
2019-05-21T07:21:51.599Z,99.90
2019-05-21T07:24:20.116Z,99.90
2019-05-21T07:26:48.634Z,99.90
2019-05-21T07:29:17.091Z,99.90
2019-05-21T07:31:45.578Z,99.90
2019-05-21T07:34:14.070Z,99.90
2019-05-21T07:36:42.525Z,99.90
2019-05-21T07:39:11.062Z,99.90
2019-05-21T07:41:39.543Z,99.90
2019-05-21T07:44:08.090Z,99.90
2019-05-21T07:46:39.542Z,99.90
2019-05-21T07:49:06.314Z,99.90
2019-05-21T07:51:34.848Z,99.90
2019-05-21T07:54:03.428Z,99.90
2019-05-21T07:56:31.987Z,99.90
2019-05-21T07:59:00.640Z,99.90
2019-05-21T08:01:29.100Z,99.90
2019-05-21T08:03:57.562Z,99.90
2019-05-21T08:06:26.066Z,99.90
2019-05-21T08:09:11.787Z,99.90
2019-05-21T08:11:24.094Z,99.90
2019-05-21T08:13:52.548Z,99.90
2019-05-21T08:16:21.067Z,99.90
2019-05-21T08:18:49.530Z,99.90
2019-05-21T08:21:17.976Z,98.60
2019-05-21T08:23:46.478Z,98.50
2019-05-21T08:26:14.944Z,97.20
2019-05-21T08:28:43.467Z,97.30
2019-05-21T08:31:12.177Z,96.80
2019-05-21T08:33:40.751Z,98.60
2019-05-21T08:36:09.195Z,97.70
2019-05-21T08:38:37.703Z,97.20
2019-05-21T08:41:06.163Z,95.50
2019-05-21T08:43:34.636Z,97.20
2019-05-21T08:46:03.594Z,96.80
2019-05-21T08:48:32.135Z,95.70
2019-05-21T08:51:01.393Z,95.10
2019-05-21T08:53:29.889Z,95.90
2019-05-21T08:55:58.388Z,94.90
2019-05-21T08:58:26.959Z,94.20
2019-05-21T09:00:55.412Z,94.30
2019-05-21T09:03:23.991Z,93.80
2019-05-21T09:05:52.441Z,93.70
2019-05-21T09:08:20.959Z,93.30
2019-05-21T09:10:49.455Z,93.00
2019-05-21T09:13:18.316Z,93.30
2019-05-21T09:15:46.983Z,93.10
2019-05-21T09:18:15.451Z,91.90
2019-05-21T09:20:44.027Z,92.60
2019-05-21T09:23:12.531Z,92.40
2019-05-21T09:25:40.986Z,92.10
2019-05-21T09:28:09.587Z,91.90
2019-05-21T09:30:38.035Z,91.90
2019-05-21T09:33:06.573Z,91.40
2019-05-21T09:35:35.236Z,92.70
2019-05-21T09:38:03.682Z,92.90
2019-05-21T09:40:32.130Z,91.50
2019-05-21T09:43:00.627Z,90.90
2019-05-21T09:45:29.090Z,90.70
2019-05-21T09:47:57.779Z,90.70
2019-05-21T09:50:26.245Z,90.20
2019-05-21T09:52:54.770Z,90.20
2019-05-21T09:55:23.328Z,89.10
2019-05-21T09:57:53.770Z,90.40
2019-05-21T10:00:33.875Z,88.70
2019-05-21T10:03:04.636Z,87.70
2019-05-21T10:05:33.162Z,90.10
2019-05-21T10:08:01.732Z,88.90
2019-05-21T10:10:30.267Z,90.20
2019-05-21T10:12:58.908Z,89.00
2019-05-21T10:15:27.354Z,90.10
2019-05-21T10:17:55.847Z,90.30
2019-05-21T10:20:24.311Z,90.90
2019-05-21T10:22:52.801Z,90.30
2019-05-21T10:25:21.328Z,90.50
2019-05-21T10:27:49.814Z,89.20
2019-05-21T10:30:18.346Z,87.70
2019-05-21T10:32:46.820Z,88.00
2019-05-21T10:35:15.581Z,84.90
2019-05-21T10:37:54.394Z,84.30
2019-05-21T10:40:13.876Z,83.70
2019-05-21T10:42:42.362Z,84.30
2019-05-21T10:45:11.666Z,85.30
2019-05-21T10:47:40.123Z,80.90
2019-05-21T10:50:09.293Z,80.80
2019-05-21T10:52:37.875Z,81.50
2019-05-21T10:55:06.763Z,79.00
2019-05-21T10:57:35.294Z,79.80
2019-05-21T11:00:12.587Z,77.10
2019-05-21T11:02:59.118Z,76.30
2019-05-21T11:05:29.361Z,75.60
2019-05-21T11:07:57.151Z,74.80
2019-05-21T11:10:25.685Z,78.00
2019-05-21T11:12:54.259Z,77.10
2019-05-21T11:15:22.911Z,73.90
2019-05-21T11:18:09.200Z,69.60
2019-05-21T11:20:21.775Z,68.30
2019-05-21T11:22:50.257Z,69.10
2019-05-21T11:25:18.754Z,70.30
2019-05-21T11:27:47.566Z,71.60
2019-05-21T11:30:16.483Z,70.70
2019-05-21T11:32:47.811Z,70.00
2019-05-21T11:35:16.023Z,67.80
2019-05-21T11:37:47.666Z,67.40
2019-05-21T11:40:15.467Z,63.60
2019-05-21T11:42:44.018Z,65.00
2019-05-21T11:45:30.716Z,64.10
2019-05-21T11:47:44.760Z,59.50
2019-05-21T11:50:13.654Z,61.70
2019-05-21T11:52:42.217Z,58.50
2019-05-21T11:55:11.222Z,55.00
2019-05-21T11:57:39.678Z,56.80
2019-05-21T12:00:10.334Z,59.50
2019-05-21T12:02:38.913Z,58.80
2019-05-21T12:05:08.661Z,58.30
2019-05-21T12:07:37.209Z,61.90
2019-05-21T12:10:08.624Z,62.70
2019-05-21T12:12:37.137Z,62.70
2019-05-21T12:15:07.529Z,63.90
2019-05-21T12:17:36.063Z,60.60
2019-05-21T12:20:07.561Z,64.80
2019-05-21T12:22:36.078Z,60.60
2019-05-21T12:25:06.219Z,58.80
2019-05-21T12:27:34.673Z,58.60
2019-05-21T12:30:04.940Z,56.10
2019-05-21T12:32:33.464Z,54.30
2019-05-21T12:35:01.954Z,53.70
2019-05-21T12:37:30.552Z,54.90
2019-05-21T12:39:59.046Z,57.50
2019-05-21T12:42:27.536Z,57.30
2019-05-21T12:44:56.750Z,58.60
2019-05-21T12:47:25.290Z,59.30
2019-05-21T12:49:53.744Z,59.30
2019-05-21T12:52:22.453Z,61.60
2019-05-21T12:54:50.913Z,62.10
2019-05-21T12:57:19.488Z,61.50
2019-05-21T12:59:48.144Z,60.60
2019-05-21T13:02:16.594Z,57.90
2019-05-21T13:04:45.128Z,58.80
2019-05-21T13:07:13.638Z,55.40
2019-05-21T13:09:42.330Z,55.80
2019-05-21T13:12:10.863Z,52.20
2019-05-21T13:14:39.325Z,53.50
2019-05-21T13:17:07.795Z,55.50
2019-05-21T13:19:36.352Z,54.90
2019-05-21T13:22:05.055Z,54.00
2019-05-21T13:24:33.614Z,55.70
2019-05-21T13:27:02.138Z,54.40
2019-05-21T13:29:30.653Z,54.20
2019-05-21T13:31:59.212Z,52.80
2019-05-21T13:34:27.743Z,52.50
2019-05-21T13:36:56.256Z,51.60
2019-05-21T13:39:25.734Z,51.20
2019-05-21T13:41:54.355Z,49.30
2019-05-21T13:44:22.986Z,47.00
2019-05-21T13:46:51.448Z,48.30
2019-05-21T13:49:19.971Z,44.50
2019-05-21T13:51:48.458Z,44.90
2019-05-21T13:54:16.907Z,46.90
2019-05-21T13:56:45.402Z,45.90
2019-05-21T13:59:13.928Z,45.90
2019-05-21T14:01:42.708Z,48.00
2019-05-21T14:04:11.338Z,49.80
2019-05-21T14:06:40.020Z,48.60
2019-05-21T14:09:09.541Z,49.10
2019-05-21T14:11:38.332Z,47.90
2019-05-21T14:14:07.102Z,50.70
2019-05-21T14:16:35.734Z,51.30
2019-05-21T14:19:04.249Z,50.40
2019-05-21T14:21:33.035Z,51.50
2019-05-21T14:24:01.570Z,52.60
2019-05-21T14:26:30.287Z,52.90
2019-05-21T14:28:58.788Z,51.10
2019-05-21T14:31:27.234Z,50.50
2019-05-21T14:33:55.835Z,50.10
2019-05-21T14:36:24.431Z,47.40
2019-05-21T14:38:53.255Z,45.50
2019-05-21T14:41:21.810Z,45.00
2019-05-21T14:43:50.259Z,44.00
2019-05-21T14:46:18.843Z,44.30
2019-05-21T14:48:47.343Z,43.80
2019-05-21T14:51:15.799Z,43.20
2019-05-21T14:53:44.680Z,42.90
2019-05-21T14:56:13.220Z,42.00
2019-05-21T14:58:41.670Z,41.50
2019-05-21T15:01:10.236Z,41.10
2019-05-21T15:03:38.687Z,41.50
2019-05-21T15:06:07.215Z,41.60
2019-05-21T15:08:35.755Z,41.20
2019-05-21T15:11:04.276Z,39.40
2019-05-21T15:13:32.735Z,40.90
2019-05-21T15:16:02.347Z,37.50
2019-05-21T15:18:30.875Z,36.10
2019-05-21T15:21:04.045Z,36.50
2019-05-21T15:23:32.921Z,37.20
2019-05-21T15:26:01.371Z,39.80
2019-05-21T15:28:29.888Z,37.80
2019-05-21T15:30:58.344Z,37.80
2019-05-21T15:33:26.827Z,36.40
2019-05-21T15:35:55.394Z,37.30
2019-05-21T15:38:23.969Z,39.00
2019-05-21T15:41:08.424Z,39.30
2019-05-21T15:43:23.000Z,38.90
2019-05-21T15:45:51.447Z,40.40
2019-05-21T15:48:19.935Z,39.50
2019-05-21T15:50:48.519Z,39.00
2019-05-21T15:53:16.984Z,37.60
2019-05-21T15:55:45.709Z,38.50
2019-05-21T15:58:14.287Z,37.70
2019-05-21T16:00:42.743Z,38.40
2019-05-21T16:03:11.311Z,39.30
2019-05-21T16:05:39.834Z,39.50
2019-05-21T16:08:08.327Z,42.40
2019-05-21T16:10:36.869Z,44.60
2019-05-21T16:13:05.466Z,46.60
2019-05-21T16:15:33.998Z,46.60
2019-05-21T16:18:02.463Z,48.60
2019-05-21T16:20:31.036Z,48.00
2019-05-21T16:22:59.486Z,47.60
2019-05-21T16:25:27.943Z,45.40
2019-05-21T16:27:56.460Z,45.50
2019-05-21T16:30:25.002Z,44.50
2019-05-21T16:32:53.452Z,44.30
2019-05-21T16:35:21.972Z,44.90
2019-05-21T16:37:50.423Z,46.70
2019-05-21T16:40:19.215Z,48.30
2019-05-21T16:42:47.755Z,49.50
2019-05-21T16:45:17.359Z,50.30
2019-05-21T16:47:46.850Z,52.30
2019-05-21T16:50:16.168Z,53.20
2019-05-21T16:52:44.990Z,53.10
2019-05-21T16:55:13.882Z,54.40
2019-05-21T16:57:42.392Z,54.20
2019-05-21T17:00:13.800Z,53.30
2019-05-21T17:02:42.670Z,53.30
2019-05-21T17:05:11.554Z,53.70
2019-05-21T17:07:40.016Z,53.10
2019-05-21T17:10:09.648Z,54.00
2019-05-21T17:12:38.184Z,54.60
2019-05-21T17:15:08.100Z,54.20
2019-05-21T17:17:36.634Z,54.50
2019-05-21T17:20:08.808Z,55.00
2019-05-21T17:22:37.794Z,54.30
2019-05-21T17:25:07.840Z,56.60
2019-05-21T17:27:36.359Z,55.70
2019-05-21T17:30:11.333Z,57.70
2019-05-21T17:32:39.838Z,57.20
2019-05-21T17:35:08.836Z,57.20
2019-05-21T17:37:37.434Z,58.90
2019-05-21T17:40:07.514Z,59.50
2019-05-21T17:42:36.376Z,58.90
2019-05-21T17:45:11.852Z,59.90
2019-05-21T17:47:40.513Z,60.20
2019-05-21T17:50:09.382Z,59.40
2019-05-21T17:52:37.913Z,59.50
2019-05-21T17:55:07.980Z,60.70
2019-05-21T17:57:35.726Z,62.50
2019-05-21T18:00:07.471Z,62.20
2019-05-21T18:02:36.000Z,61.30
2019-05-21T18:05:07.355Z,62.70
2019-05-21T18:07:37.439Z,63.90
2019-05-21T18:10:07.839Z,65.00
2019-05-21T18:12:36.980Z,66.20
2019-05-21T18:15:08.947Z,67.10
2019-05-21T18:17:37.732Z,69.10
2019-05-21T18:20:08.494Z,74.40
2019-05-21T18:22:39.002Z,79.80
2019-05-21T18:25:08.066Z,81.00
2019-05-21T18:27:36.730Z,83.90
2019-05-21T18:30:07.797Z,86.30
2019-05-21T18:32:36.365Z,87.20
2019-05-21T18:35:06.916Z,87.90
2019-05-21T18:37:36.855Z,89.40
2019-05-21T18:40:32.787Z,90.00
2019-05-21T18:43:01.415Z,90.80
2019-05-21T18:45:29.948Z,90.70
2019-05-21T18:47:58.463Z,91.30
2019-05-21T18:50:35.488Z,92.20
2019-05-21T18:52:57.160Z,92.90
2019-05-21T18:55:25.815Z,93.70
2019-05-21T18:57:54.512Z,94.20
2019-05-21T19:00:23.312Z,94.90
2019-05-21T19:02:51.816Z,95.40
2019-05-21T19:05:20.442Z,95.90
2019-05-21T19:07:48.958Z,95.90
2019-05-21T19:10:17.915Z,96.10
2019-05-21T19:12:46.503Z,96.30
2019-05-21T19:15:15.997Z,96.60
2019-05-21T19:17:44.533Z,97.20
2019-05-21T19:20:13.999Z,97.70
2019-05-21T19:22:42.458Z,98.50
2019-05-21T19:25:11.184Z,98.00
2019-05-21T19:27:39.942Z,98.40
2019-05-21T19:30:08.966Z,98.70
2019-05-21T19:32:37.583Z,98.80
2019-05-21T19:35:06.987Z,98.40
2019-05-21T19:37:35.487Z,98.50
2019-05-21T19:40:06.429Z,99.00
2019-05-21T19:42:34.993Z,98.90
2019-05-21T19:45:07.485Z,98.60
2019-05-21T19:47:36.012Z,98.40
2019-05-21T19:50:06.610Z,98.90
2019-05-21T19:52:35.129Z,98.60
2019-05-21T19:55:05.335Z,99.10
2019-05-21T19:57:33.345Z,99.40
2019-05-21T20:00:01.981Z,99.50
2019-05-21T20:02:30.430Z,99.60
2019-05-21T20:05:00.015Z,99.70
2019-05-21T20:07:29.307Z,99.60
2019-05-21T20:09:59.303Z,99.60
2019-05-21T20:12:27.825Z,99.90
2019-05-21T20:14:56.549Z,99.90
2019-05-21T20:17:28.413Z,99.90
2019-05-21T20:19:56.971Z,99.90
2019-05-21T20:22:26.409Z,99.90
2019-05-21T20:24:55.503Z,99.90
2019-05-21T20:27:24.070Z,99.90
2019-05-21T20:29:53.237Z,99.90
2019-05-21T20:32:23.002Z,99.90
2019-05-21T20:34:51.615Z,99.90
2019-05-21T20:37:21.747Z,99.90
2019-05-21T20:39:51.899Z,99.90
2019-05-21T20:42:21.195Z,99.90
2019-05-21T20:44:50.290Z,99.90
2019-05-21T20:47:19.211Z,99.90
2019-05-21T20:49:48.875Z,99.90
2019-05-21T20:52:19.222Z,99.90
2019-05-21T20:54:47.591Z,99.90
2019-05-21T20:57:16.834Z,99.90
2019-05-21T20:59:45.292Z,99.90
2019-05-21T21:02:14.792Z,99.90
2019-05-21T21:04:43.530Z,99.90
2019-05-21T21:07:12.219Z,99.90
2019-05-21T21:09:41.400Z,99.90
2019-05-21T21:12:11.658Z,99.90
2019-05-21T21:14:40.142Z,99.90
2019-05-21T21:17:10.363Z,99.90
2019-05-21T21:19:40.764Z,99.90
2019-05-21T21:22:09.215Z,99.90
2019-05-21T21:24:38.261Z,99.90
2019-05-21T21:27:07.783Z,99.90
2019-05-21T21:29:36.238Z,99.90
2019-05-21T21:32:04.762Z,99.90
2019-05-21T21:34:33.652Z,99.90
2019-05-21T21:37:04.111Z,99.90
2019-05-21T21:39:32.059Z,99.90
2019-05-21T21:42:01.254Z,99.90
2019-05-21T21:44:33.935Z,99.90
2019-05-21T21:47:00.768Z,99.90
2019-05-21T21:49:31.136Z,99.90
2019-05-21T21:51:59.047Z,99.90
2019-05-21T21:54:27.924Z,99.90
2019-05-21T21:56:56.615Z,99.90
2019-05-21T21:59:25.168Z,99.90
2019-05-21T22:01:56.810Z,99.90
2019-05-21T22:04:30.491Z,99.90
2019-05-21T22:06:59.394Z,99.90
2019-05-21T22:09:29.277Z,99.90
2019-05-21T22:11:58.734Z,99.90
2019-05-21T22:14:28.037Z,99.90
2019-05-21T22:16:57.066Z,99.90
2019-05-21T22:19:26.967Z,99.90
2019-05-21T22:21:56.069Z,99.90
2019-05-21T22:24:24.831Z,99.90
2019-05-21T22:26:53.274Z,99.90
2019-05-21T22:29:21.846Z,99.90
2019-05-21T22:31:50.379Z,99.90
2019-05-21T22:34:18.935Z,99.90
2019-05-21T22:36:47.394Z,99.90
2019-05-21T22:39:26.935Z,99.90
2019-05-21T22:41:55.397Z,99.90
2019-05-21T22:44:23.856Z,99.90
2019-05-21T22:46:52.534Z,99.90
2019-05-21T22:49:21.159Z,99.90
2019-05-21T22:51:50.035Z,99.90
2019-05-21T22:54:18.719Z,99.90
2019-05-21T22:56:47.180Z,99.90
2019-05-21T22:59:15.984Z,99.90
2019-05-21T23:01:46.450Z,99.90
2019-05-21T23:04:16.027Z,99.90
2019-05-21T23:06:44.498Z,99.90
2019-05-21T23:09:13.193Z,99.90
2019-05-21T23:11:41.655Z,99.90
2019-05-21T23:14:10.291Z,99.90
2019-05-21T23:16:39.263Z,99.90
2019-05-21T23:19:08.630Z,99.90
2019-05-21T23:21:37.155Z,99.90
2019-05-21T23:24:08.336Z,99.90
2019-05-21T23:26:37.534Z,99.90
2019-05-21T23:29:06.710Z,99.90
2019-05-21T23:31:35.203Z,99.90
2019-05-21T23:34:03.883Z,99.90
2019-05-21T23:36:32.655Z,99.90
2019-05-21T23:39:03.098Z,99.90
2019-05-21T23:41:32.656Z,99.90
2019-05-21T23:44:01.819Z,99.90
2019-05-21T23:46:30.343Z,99.90
2019-05-21T23:48:58.802Z,99.90
2019-05-21T23:51:27.299Z,99.90
2019-05-21T23:53:55.891Z,99.90
2019-05-21T23:56:24.366Z,99.90
2019-05-21T23:58:52.830Z,99.90
